Overview Statistics Trail Chart Weather Telemetry Raw packets
 

This is the latest recevied weather packets stored in our database for station/object KD4PMP. If no packets are shown the sender has not sent any weather packets the latest 10 day(s).

<< 17 18 19 20 21 22 23 >>
Time Temp. Humidity Pressure Rain* Wind** Luminosity Snow
1788357673 30° C 69% 1018.2 hPa 0 mm - - -
1788357066 28.89° C 75% 1018.1 hPa 0 mm - - -
1788356460 28.33° C 78% 1018.2 hPa 0 mm - - -
1788355854 27.78° C 81% 1018 hPa 0 mm - - -
1788355247 26.67° C 85% 1017.9 hPa 0 mm - - -
1788354641 25.56° C 87% 1018.1 hPa 0 mm - - -
1788354035 25° C 89% 1017.9 hPa 0 mm - - -
1788353429 24.44° C 92% 1018.1 hPa 0 mm - - -
1788352822 23.33° C 94% 1018.1 hPa 0 mm - - -
1788352216 22.78° C 95% 1018.1 hPa 0 mm - - -
1788351610 22.78° C 95% 1018.1 hPa 0 mm - - -
1788351003 22.78° C 94% 1017.9 hPa 0 mm - - -
1788350397 22.22° C 94% 1017.8 hPa 0 mm - - -
1788349791 22.22° C 95% 1017.8 hPa 0 mm - - -
1788349184 22.22° C 94% 1017.6 hPa 0 mm - - -
1788348577 22.22° C 94% 1017.5 hPa 0 mm - - -
1788347971 22.78° C 94% 1017.3 hPa 0 mm - - -
1788347365 22.78° C 94% 1017.2 hPa 0 mm - - -
1788346758 22.78° C 94% 1017.1 hPa 0 mm - - -
1788346152 22.78° C 94% 1017.1 hPa 0 mm - - -
1788345545 22.78° C 94% 1017.1 hPa 0 mm - - -
1788344939 22.78° C 94% 1017.1 hPa 0 mm - - -
1788344333 22.78° C 93% 1016.9 hPa 0 mm - - -
1788343726 22.78° C 93% 1016.8 hPa 0 mm - - -
1788343120 23.33° C 93% 1016.6 hPa 0 mm - - -

* Rain latest hour (hover to see other rain measurements)
** Current wind speed in m/s (hover to see current wind gust speed)